sensor_id;sensor_type;location;lat;lon;timestamp;P1;durP1;ratioP1;P2;durP2;ratioP2
9048;SDS011;4559;47.252;9.592;2022-12-29T00:01:29;1.17;;;0.60;;
9048;SDS011;4559;47.252;9.592;2022-12-29T00:03:55;0.60;;;0.47;;
9048;SDS011;4559;47.252;9.592;2022-12-29T00:06:20;0.63;;;0.33;;
9048;SDS011;4559;47.252;9.592;2022-12-29T00:08:46;1.10;;;0.90;;
9048;SDS011;4559;47.252;9.592;2022-12-29T00:11:13;2.70;;;0.80;;
9048;SDS011;4559;47.252;9.592;2022-12-29T00:13:42;0.50;;;0.50;;
9048;SDS011;4559;47.252;9.592;2022-12-29T00:16:27;0.83;;;0.53;;
9048;SDS011;4559;47.252;9.592;2022-12-29T00:18:53;0.60;;;0.60;;
9048;SDS011;4559;47.252;9.592;2022-12-29T00:21:20;1.20;;;0.60;;
9048;SDS011;4559;47.252;9.592;2022-12-29T00:24:05;0.40;;;0.40;;
9048;SDS011;4559;47.252;9.592;2022-12-29T00:26:53;0.63;;;0.50;;
9048;SDS011;4559;47.252;9.592;2022-12-29T00:29:45;1.20;;;0.60;;
9048;SDS011;4559;47.252;9.592;2022-12-29T00:32:29;2.08;;;1.30;;
9048;SDS011;4559;47.252;9.592;2022-12-29T00:35:13;0.77;;;0.77;;
9048;SDS011;4559;47.252;9.592;2022-12-29T00:37:49;0.55;;;0.55;;
9048;SDS011;4559;47.252;9.592;2022-12-29T00:40:38;0.70;;;0.47;;
9048;SDS011;4559;47.252;9.592;2022-12-29T00:43:22;1.30;;;0.70;;
9048;SDS011;4559;47.252;9.592;2022-12-29T00:46:07;0.82;;;0.60;;
9048;SDS011;4559;47.252;9.592;2022-12-29T00:48:32;1.00;;;0.80;;
9048;SDS011;4559;47.252;9.592;2022-12-29T00:51:16;0.77;;;0.77;;
9048;SDS011;4559;47.252;9.592;2022-12-29T00:53:41;0.80;;;0.80;;
9048;SDS011;4559;47.252;9.592;2022-12-29T00:56:07;1.02;;;0.73;;
9048;SDS011;4559;47.252;9.592;2022-12-29T00:58:33;0.82;;;0.82;;
9048;SDS011;4559;47.252;9.592;2022-12-29T01:01:02;1.20;;;0.60;;
9048;SDS011;4559;47.252;9.592;2022-12-29T01:03:29;0.75;;;0.68;;
9048;SDS011;4559;47.252;9.592;2022-12-29T01:05:54;1.10;;;0.97;;
9048;SDS011;4559;47.252;9.592;2022-12-29T01:08:20;0.50;;;0.50;;
9048;SDS011;4559;47.252;9.592;2022-12-29T01:10:45;1.03;;;0.60;;
9048;SDS011;4559;47.252;9.592;2022-12-29T01:13:11;0.95;;;0.75;;
9048;SDS011;4559;47.252;9.592;2022-12-29T01:15:37;0.45;;;0.45;;
9048;SDS011;4559;47.252;9.592;2022-12-29T01:18:02;1.03;;;0.90;;
9048;SDS011;4559;47.252;9.592;2022-12-29T01:20:28;1.60;;;0.80;;
9048;SDS011;4559;47.252;9.592;2022-12-29T01:22:53;1.07;;;0.90;;
9048;SDS011;4559;47.252;9.592;2022-12-29T01:25:19;0.90;;;0.80;;
9048;SDS011;4559;47.252;9.592;2022-12-29T01:27:45;2.27;;;1.03;;
9048;SDS011;4559;47.252;9.592;2022-12-29T01:30:11;0.90;;;0.90;;
9048;SDS011;4559;47.252;9.592;2022-12-29T01:32:37;1.10;;;0.77;;
9048;SDS011;4559;47.252;9.592;2022-12-29T01:35:02;0.73;;;0.73;;
9048;SDS011;4559;47.252;9.592;2022-12-29T01:37:28;1.95;;;1.40;;
9048;SDS011;4559;47.252;9.592;2022-12-29T01:39:54;0.63;;;0.60;;
9048;SDS011;4559;47.252;9.592;2022-12-29T01:42:22;0.50;;;0.50;;
9048;SDS011;4559;47.252;9.592;2022-12-29T01:44:53;0.70;;;0.70;;
9048;SDS011;4559;47.252;9.592;2022-12-29T01:47:30;0.73;;;0.70;;
9048;SDS011;4559;47.252;9.592;2022-12-29T01:50:02;0.80;;;0.70;;
9048;SDS011;4559;47.252;9.592;2022-12-29T01:52:42;0.98;;;0.60;;
9048;SDS011;4559;47.252;9.592;2022-12-29T01:55:15;0.67;;;0.67;;
9048;SDS011;4559;47.252;9.592;2022-12-29T01:57:42;0.60;;;0.60;;
9048;SDS011;4559;47.252;9.592;2022-12-29T02:00:12;1.10;;;0.82;;
9048;SDS011;4559;47.252;9.592;2022-12-29T02:02:39;0.98;;;0.70;;
9048;SDS011;4559;47.252;9.592;2022-12-29T02:05:14;1.15;;;0.82;;
9048;SDS011;4559;47.252;9.592;2022-12-29T02:07:52;0.75;;;0.75;;
9048;SDS011;4559;47.252;9.592;2022-12-29T02:10:22;0.45;;;0.45;;
9048;SDS011;4559;47.252;9.592;2022-12-29T02:12:51;1.03;;;0.83;;
9048;SDS011;4559;47.252;9.592;2022-12-29T02:15:17;0.70;;;0.70;;
9048;SDS011;4559;47.252;9.592;2022-12-29T02:18:18;0.75;;;0.75;;
9048;SDS011;4559;47.252;9.592;2022-12-29T02:34:47;0.55;;;0.55;;
9048;SDS011;4559;47.252;9.592;2022-12-29T02:40:28;0.80;;;0.80;;
9048;SDS011;4559;47.252;9.592;2022-12-29T02:43:14;1.15;;;0.95;;
9048;SDS011;4559;47.252;9.592;2022-12-29T02:45:47;0.80;;;0.60;;
9048;SDS011;4559;47.252;9.592;2022-12-29T02:48:40;0.77;;;0.60;;
9048;SDS011;4559;47.252;9.592;2022-12-29T02:51:27;0.50;;;0.50;;
9048;SDS011;4559;47.252;9.592;2022-12-29T02:54:00;1.00;;;0.90;;
9048;SDS011;4559;47.252;9.592;2022-12-29T02:56:45;0.50;;;0.40;;
9048;SDS011;4559;47.252;9.592;2022-12-29T02:59:10;1.30;;;0.87;;
9048;SDS011;4559;47.252;9.592;2022-12-29T03:04:42;0.47;;;0.47;;
9048;SDS011;4559;47.252;9.592;2022-12-29T03:10:15;1.20;;;0.93;;
9048;SDS011;4559;47.252;9.592;2022-12-29T03:15:44;0.60;;;0.60;;
9048;SDS011;4559;47.252;9.592;2022-12-29T03:21:04;0.73;;;0.50;;
9048;SDS011;4559;47.252;9.592;2022-12-29T03:23:34;0.60;;;0.60;;
9048;SDS011;4559;47.252;9.592;2022-12-29T03:26:04;0.73;;;0.70;;
9048;SDS011;4559;47.252;9.592;2022-12-29T03:28:38;0.90;;;0.70;;
9048;SDS011;4559;47.252;9.592;2022-12-29T03:31:08;0.95;;;0.70;;
9048;SDS011;4559;47.252;9.592;2022-12-29T03:33:35;0.98;;;0.95;;
9048;SDS011;4559;47.252;9.592;2022-12-29T03:36:04;0.50;;;0.50;;
9048;SDS011;4559;47.252;9.592;2022-12-29T03:38:35;0.90;;;0.80;;
9048;SDS011;4559;47.252;9.592;2022-12-29T03:41:14;0.50;;;0.50;;
9048;SDS011;4559;47.252;9.592;2022-12-29T03:43:45;0.88;;;0.68;;
9048;SDS011;4559;47.252;9.592;2022-12-29T03:46:11;1.20;;;0.60;;
9048;SDS011;4559;47.252;9.592;2022-12-29T03:48:36;0.50;;;0.50;;
9048;SDS011;4559;47.252;9.592;2022-12-29T03:51:02;0.60;;;0.57;;
9048;SDS011;4559;47.252;9.592;2022-12-29T03:53:27;0.82;;;0.57;;
9048;SDS011;4559;47.252;9.592;2022-12-29T03:55:53;0.70;;;0.68;;
9048;SDS011;4559;47.252;9.592;2022-12-29T03:58:19;0.43;;;0.40;;
9048;SDS011;4559;47.252;9.592;2022-12-29T04:00:44;1.07;;;0.73;;
9048;SDS011;4559;47.252;9.592;2022-12-29T04:03:10;0.53;;;0.40;;
9048;SDS011;4559;47.252;9.592;2022-12-29T04:05:35;0.60;;;0.60;;
9048;SDS011;4559;47.252;9.592;2022-12-29T04:08:01;0.70;;;0.70;;
9048;SDS011;4559;47.252;9.592;2022-12-29T04:10:26;0.50;;;0.40;;
9048;SDS011;4559;47.252;9.592;2022-12-29T04:12:52;0.50;;;0.50;;
9048;SDS011;4559;47.252;9.592;2022-12-29T04:15:17;0.90;;;0.60;;
9048;SDS011;4559;47.252;9.592;2022-12-29T04:17:43;1.93;;;0.70;;
9048;SDS011;4559;47.252;9.592;2022-12-29T04:20:09;0.73;;;0.70;;
9048;SDS011;4559;47.252;9.592;2022-12-29T04:23:01;0.43;;;0.43;;
9048;SDS011;4559;47.252;9.592;2022-12-29T04:25:31;0.68;;;0.68;;
9048;SDS011;4559;47.252;9.592;2022-12-29T04:27:57;0.52;;;0.52;;
9048;SDS011;4559;47.252;9.592;2022-12-29T04:30:23;0.60;;;0.57;;
9048;SDS011;4559;47.252;9.592;2022-12-29T04:32:49;0.52;;;0.52;;
9048;SDS011;4559;47.252;9.592;2022-12-29T04:35:15;0.50;;;0.50;;
9048;SDS011;4559;47.252;9.592;2022-12-29T04:37:40;0.40;;;0.40;;
9048;SDS011;4559;47.252;9.592;2022-12-29T04:40:06;0.43;;;0.40;;
9048;SDS011;4559;47.252;9.592;2022-12-29T04:42:32;0.68;;;0.68;;
9048;SDS011;4559;47.252;9.592;2022-12-29T04:44:58;0.63;;;0.63;;
9048;SDS011;4559;47.252;9.592;2022-12-29T04:47:23;0.63;;;0.63;;
9048;SDS011;4559;47.252;9.592;2022-12-29T04:49:49;1.27;;;0.70;;
9048;SDS011;4559;47.252;9.592;2022-12-29T04:52:15;1.90;;;0.70;;
9048;SDS011;4559;47.252;9.592;2022-12-29T04:54:40;1.53;;;1.00;;
9048;SDS011;4559;47.252;9.592;2022-12-29T04:57:06;0.83;;;0.80;;
9048;SDS011;4559;47.252;9.592;2022-12-29T04:59:31;0.50;;;0.50;;
9048;SDS011;4559;47.252;9.592;2022-12-29T05:01:57;0.63;;;0.57;;
9048;SDS011;4559;47.252;9.592;2022-12-29T05:04:22;0.90;;;0.90;;
9048;SDS011;4559;47.252;9.592;2022-12-29T05:06:48;0.33;;;0.33;;
9048;SDS011;4559;47.252;9.592;2022-12-29T05:09:13;2.17;;;1.30;;
9048;SDS011;4559;47.252;9.592;2022-12-29T05:11:39;1.50;;;0.80;;
9048;SDS011;4559;47.252;9.592;2022-12-29T05:14:05;0.63;;;0.43;;
9048;SDS011;4559;47.252;9.592;2022-12-29T05:16:30;0.75;;;0.68;;
9048;SDS011;4559;47.252;9.592;2022-12-29T05:18:56;1.48;;;0.77;;
9048;SDS011;4559;47.252;9.592;2022-12-29T05:21:21;0.97;;;0.77;;
9048;SDS011;4559;47.252;9.592;2022-12-29T05:23:47;0.63;;;0.63;;
9048;SDS011;4559;47.252;9.592;2022-12-29T05:26:12;1.30;;;0.80;;
9048;SDS011;4559;47.252;9.592;2022-12-29T05:28:38;1.63;;;1.10;;
9048;SDS011;4559;47.252;9.592;2022-12-29T05:31:04;1.70;;;0.80;;
9048;SDS011;4559;47.252;9.592;2022-12-29T05:33:29;0.80;;;0.80;;
9048;SDS011;4559;47.252;9.592;2022-12-29T05:35:55;0.70;;;0.65;;
9048;SDS011;4559;47.252;9.592;2022-12-29T05:38:20;2.83;;;1.05;;
9048;SDS011;4559;47.252;9.592;2022-12-29T05:40:46;0.95;;;0.60;;
9048;SDS011;4559;47.252;9.592;2022-12-29T05:43:12;0.67;;;0.67;;
9048;SDS011;4559;47.252;9.592;2022-12-29T05:45:37;0.80;;;0.80;;
9048;SDS011;4559;47.252;9.592;2022-12-29T05:48:03;0.60;;;0.60;;
9048;SDS011;4559;47.252;9.592;2022-12-29T05:50:29;1.20;;;0.60;;
9048;SDS011;4559;47.252;9.592;2022-12-29T05:52:54;0.90;;;0.90;;
9048;SDS011;4559;47.252;9.592;2022-12-29T05:55:20;1.20;;;0.73;;
9048;SDS011;4559;47.252;9.592;2022-12-29T05:57:46;0.97;;;0.53;;
9048;SDS011;4559;47.252;9.592;2022-12-29T06:00:12;0.50;;;0.50;;
9048;SDS011;4559;47.252;9.592;2022-12-29T06:02:38;1.17;;;0.75;;
9048;SDS011;4559;47.252;9.592;2022-12-29T06:05:03;0.65;;;0.65;;
9048;SDS011;4559;47.252;9.592;2022-12-29T06:07:30;0.63;;;0.50;;
9048;SDS011;4559;47.252;9.592;2022-12-29T06:09:55;0.97;;;0.77;;
9048;SDS011;4559;47.252;9.592;2022-12-29T06:12:21;1.23;;;0.73;;
9048;SDS011;4559;47.252;9.592;2022-12-29T06:14:47;1.03;;;0.93;;
9048;SDS011;4559;47.252;9.592;2022-12-29T06:17:12;1.37;;;0.87;;
9048;SDS011;4559;47.252;9.592;2022-12-29T06:19:38;1.77;;;0.93;;
9048;SDS011;4559;47.252;9.592;2022-12-29T06:22:03;2.03;;;1.40;;
9048;SDS011;4559;47.252;9.592;2022-12-29T06:24:29;3.70;;;1.17;;
9048;SDS011;4559;47.252;9.592;2022-12-29T06:26:55;0.60;;;0.60;;
9048;SDS011;4559;47.252;9.592;2022-12-29T06:29:20;3.70;;;1.15;;
9048;SDS011;4559;47.252;9.592;2022-12-29T06:31:46;0.77;;;0.77;;
9048;SDS011;4559;47.252;9.592;2022-12-29T06:34:13;1.80;;;0.80;;
9048;SDS011;4559;47.252;9.592;2022-12-29T06:36:39;1.00;;;0.85;;
9048;SDS011;4559;47.252;9.592;2022-12-29T06:39:05;1.35;;;1.00;;
9048;SDS011;4559;47.252;9.592;2022-12-29T06:41:30;1.27;;;0.98;;
9048;SDS011;4559;47.252;9.592;2022-12-29T06:43:56;0.70;;;0.70;;
9048;SDS011;4559;47.252;9.592;2022-12-29T06:46:22;1.35;;;0.82;;
9048;SDS011;4559;47.252;9.592;2022-12-29T06:48:48;0.93;;;0.93;;
9048;SDS011;4559;47.252;9.592;2022-12-29T06:51:13;1.03;;;0.97;;
9048;SDS011;4559;47.252;9.592;2022-12-29T06:53:39;1.80;;;1.10;;
9048;SDS011;4559;47.252;9.592;2022-12-29T06:56:05;1.67;;;1.00;;
9048;SDS011;4559;47.252;9.592;2022-12-29T06:58:31;1.30;;;0.80;;
9048;SDS011;4559;47.252;9.592;2022-12-29T07:00:56;0.63;;;0.57;;
9048;SDS011;4559;47.252;9.592;2022-12-29T07:03:22;1.02;;;0.85;;
9048;SDS011;4559;47.252;9.592;2022-12-29T07:05:48;2.05;;;1.58;;
9048;SDS011;4559;47.252;9.592;2022-12-29T07:08:13;1.90;;;1.20;;
9048;SDS011;4559;47.252;9.592;2022-12-29T07:13:51;1.73;;;1.20;;
9048;SDS011;4559;47.252;9.592;2022-12-29T07:16:16;1.47;;;0.90;;
9048;SDS011;4559;47.252;9.592;2022-12-29T07:18:42;1.03;;;0.90;;
9048;SDS011;4559;47.252;9.592;2022-12-29T07:21:08;1.20;;;0.93;;
9048;SDS011;4559;47.252;9.592;2022-12-29T07:23:33;5.38;;;1.88;;
9048;SDS011;4559;47.252;9.592;2022-12-29T07:26:03;2.85;;;1.80;;
9048;SDS011;4559;47.252;9.592;2022-12-29T07:28:30;1.40;;;1.30;;
9048;SDS011;4559;47.252;9.592;2022-12-29T07:30:57;1.92;;;1.50;;
9048;SDS011;4559;47.252;9.592;2022-12-29T07:33:23;1.83;;;1.17;;
9048;SDS011;4559;47.252;9.592;2022-12-29T07:35:49;1.10;;;1.00;;
9048;SDS011;4559;47.252;9.592;2022-12-29T07:40:58;1.67;;;1.10;;
9048;SDS011;4559;47.252;9.592;2022-12-29T07:43:23;1.00;;;0.87;;
9048;SDS011;4559;47.252;9.592;2022-12-29T07:45:49;1.88;;;1.35;;
9048;SDS011;4559;47.252;9.592;2022-12-29T07:48:15;2.08;;;0.88;;
9048;SDS011;4559;47.252;9.592;2022-12-29T07:50:40;1.60;;;1.30;;
9048;SDS011;4559;47.252;9.592;2022-12-29T07:53:06;1.50;;;0.93;;
9048;SDS011;4559;47.252;9.592;2022-12-29T07:55:31;1.50;;;1.07;;
9048;SDS011;4559;47.252;9.592;2022-12-29T07:57:57;4.27;;;1.40;;
9048;SDS011;4559;47.252;9.592;2022-12-29T08:00:23;2.45;;;1.45;;
9048;SDS011;4559;47.252;9.592;2022-12-29T08:02:49;2.25;;;1.52;;
9048;SDS011;4559;47.252;9.592;2022-12-29T08:05:14;2.55;;;1.52;;
9048;SDS011;4559;47.252;9.592;2022-12-29T08:07:42;2.33;;;1.45;;
9048;SDS011;4559;47.252;9.592;2022-12-29T08:10:09;3.22;;;2.20;;
9048;SDS011;4559;47.252;9.592;2022-12-29T08:12:37;2.17;;;1.67;;
9048;SDS011;4559;47.252;9.592;2022-12-29T08:15:03;1.95;;;1.75;;
9048;SDS011;4559;47.252;9.592;2022-12-29T08:17:29;2.55;;;1.30;;
9048;SDS011;4559;47.252;9.592;2022-12-29T08:19:54;1.50;;;1.30;;
9048;SDS011;4559;47.252;9.592;2022-12-29T08:22:20;2.37;;;1.30;;
9048;SDS011;4559;47.252;9.592;2022-12-29T08:24:45;5.00;;;2.53;;
9048;SDS011;4559;47.252;9.592;2022-12-29T08:27:11;4.67;;;3.70;;
9048;SDS011;4559;47.252;9.592;2022-12-29T08:29:37;6.40;;;2.47;;
9048;SDS011;4559;47.252;9.592;2022-12-29T08:32:02;2.53;;;2.00;;
9048;SDS011;4559;47.252;9.592;2022-12-29T08:34:29;2.60;;;1.80;;
9048;SDS011;4559;47.252;9.592;2022-12-29T08:36:56;2.83;;;1.40;;
9048;SDS011;4559;47.252;9.592;2022-12-29T08:39:21;2.45;;;1.67;;
9048;SDS011;4559;47.252;9.592;2022-12-29T08:41:47;2.25;;;1.45;;
9048;SDS011;4559;47.252;9.592;2022-12-29T08:44:12;1.90;;;1.50;;
9048;SDS011;4559;47.252;9.592;2022-12-29T08:46:38;3.63;;;2.10;;
9048;SDS011;4559;47.252;9.592;2022-12-29T08:49:04;1.30;;;1.20;;
9048;SDS011;4559;47.252;9.592;2022-12-29T08:51:29;2.17;;;1.67;;
9048;SDS011;4559;47.252;9.592;2022-12-29T08:53:55;1.40;;;1.30;;
9048;SDS011;4559;47.252;9.592;2022-12-29T08:56:21;2.60;;;1.80;;
9048;SDS011;4559;47.252;9.592;2022-12-29T08:58:48;3.78;;;1.73;;
9048;SDS011;4559;47.252;9.592;2022-12-29T09:01:15;2.40;;;1.65;;
9048;SDS011;4559;47.252;9.592;2022-12-29T09:03:40;3.40;;;1.60;;
9048;SDS011;4559;47.252;9.592;2022-12-29T09:06:06;2.33;;;1.73;;
9048;SDS011;4559;47.252;9.592;2022-12-29T09:08:31;3.35;;;1.77;;
9048;SDS011;4559;47.252;9.592;2022-12-29T09:11:11;2.40;;;1.60;;
9048;SDS011;4559;47.252;9.592;2022-12-29T09:13:44;1.80;;;1.48;;
9048;SDS011;4559;47.252;9.592;2022-12-29T09:16:10;1.67;;;1.48;;
9048;SDS011;4559;47.252;9.592;2022-12-29T09:18:36;3.13;;;1.75;;
9048;SDS011;4559;47.252;9.592;2022-12-29T09:21:03;2.03;;;1.80;;
9048;SDS011;4559;47.252;9.592;2022-12-29T09:23:30;1.60;;;1.30;;
9048;SDS011;4559;47.252;9.592;2022-12-29T09:25:56;2.45;;;1.33;;
9048;SDS011;4559;47.252;9.592;2022-12-29T09:28:22;1.88;;;1.42;;
9048;SDS011;4559;47.252;9.592;2022-12-29T09:30:48;2.00;;;1.50;;
9048;SDS011;4559;47.252;9.592;2022-12-29T09:33:15;1.70;;;1.55;;
9048;SDS011;4559;47.252;9.592;2022-12-29T09:35:42;4.40;;;2.45;;
9048;SDS011;4559;47.252;9.592;2022-12-29T09:38:14;5.55;;;3.03;;
9048;SDS011;4559;47.252;9.592;2022-12-29T09:40:40;3.42;;;2.67;;
9048;SDS011;4559;47.252;9.592;2022-12-29T09:43:17;2.88;;;1.48;;
9048;SDS011;4559;47.252;9.592;2022-12-29T09:45:47;5.07;;;1.85;;
9048;SDS011;4559;47.252;9.592;2022-12-29T09:48:22;4.05;;;1.90;;
9048;SDS011;4559;47.252;9.592;2022-12-29T09:50:56;1.45;;;1.35;;
9048;SDS011;4559;47.252;9.592;2022-12-29T09:55:59;2.28;;;1.50;;
9048;SDS011;4559;47.252;9.592;2022-12-29T09:58:28;1.13;;;1.02;;
9048;SDS011;4559;47.252;9.592;2022-12-29T10:01:03;2.13;;;1.10;;
9048;SDS011;4559;47.252;9.592;2022-12-29T10:03:54;1.02;;;0.70;;
9048;SDS011;4559;47.252;9.592;2022-12-29T10:06:55;1.20;;;1.10;;
9048;SDS011;4559;47.252;9.592;2022-12-29T10:12:06;1.77;;;1.60;;
9048;SDS011;4559;47.252;9.592;2022-12-29T10:20:27;1.85;;;1.52;;
9048;SDS011;4559;47.252;9.592;2022-12-29T10:25:45;1.85;;;1.35;;
9048;SDS011;4559;47.252;9.592;2022-12-29T10:28:17;2.40;;;1.80;;
9048;SDS011;4559;47.252;9.592;2022-12-29T10:30:47;2.72;;;1.77;;
9048;SDS011;4559;47.252;9.592;2022-12-29T10:33:21;2.58;;;1.45;;
9048;SDS011;4559;47.252;9.592;2022-12-29T10:35:50;3.03;;;1.95;;
9048;SDS011;4559;47.252;9.592;2022-12-29T10:38:29;3.92;;;2.08;;
9048;SDS011;4559;47.252;9.592;2022-12-29T10:43:44;6.20;;;2.90;;
9048;SDS011;4559;47.252;9.592;2022-12-29T10:46:13;5.95;;;3.38;;
9048;SDS011;4559;47.252;9.592;2022-12-29T10:48:48;4.97;;;2.57;;
9048;SDS011;4559;47.252;9.592;2022-12-29T10:51:18;5.50;;;2.37;;
9048;SDS011;4559;47.252;9.592;2022-12-29T10:54:06;2.45;;;1.80;;
9048;SDS011;4559;47.252;9.592;2022-12-29T10:56:45;4.45;;;1.92;;
9048;SDS011;4559;47.252;9.592;2022-12-29T10:59:25;1.25;;;1.10;;
9048;SDS011;4559;47.252;9.592;2022-12-29T11:04:40;0.90;;;0.70;;
9048;SDS011;4559;47.252;9.592;2022-12-29T11:07:27;1.20;;;0.70;;
9048;SDS011;4559;47.252;9.592;2022-12-29T11:09:55;0.80;;;0.73;;
9048;SDS011;4559;47.252;9.592;2022-12-29T11:12:40;1.70;;;1.30;;
9048;SDS011;4559;47.252;9.592;2022-12-29T11:17:44;2.20;;;1.80;;
9048;SDS011;4559;47.252;9.592;2022-12-29T11:22:58;2.28;;;1.00;;
9048;SDS011;4559;47.252;9.592;2022-12-29T11:25:24;1.40;;;0.75;;
9048;SDS011;4559;47.252;9.592;2022-12-29T11:28:03;0.83;;;0.83;;
9048;SDS011;4559;47.252;9.592;2022-12-29T11:30:40;1.48;;;0.90;;
9048;SDS011;4559;47.252;9.592;2022-12-29T11:33:06;0.60;;;0.60;;
9048;SDS011;4559;47.252;9.592;2022-12-29T11:35:35;0.63;;;0.60;;
9048;SDS011;4559;47.252;9.592;2022-12-29T11:38:03;0.70;;;0.70;;
9048;SDS011;4559;47.252;9.592;2022-12-29T11:40:30;1.77;;;1.08;;
9048;SDS011;4559;47.252;9.592;2022-12-29T11:42:57;0.82;;;0.82;;
9048;SDS011;4559;47.252;9.592;2022-12-29T11:45:31;1.90;;;1.42;;
9048;SDS011;4559;47.252;9.592;2022-12-29T11:48:11;1.02;;;0.90;;
9048;SDS011;4559;47.252;9.592;2022-12-29T11:50:41;0.45;;;0.45;;
9048;SDS011;4559;47.252;9.592;2022-12-29T11:53:16;1.10;;;0.60;;
9048;SDS011;4559;47.252;9.592;2022-12-29T11:55:53;1.08;;;0.80;;
9048;SDS011;4559;47.252;9.592;2022-12-29T11:58:30;1.00;;;0.80;;
9048;SDS011;4559;47.252;9.592;2022-12-29T12:04:22;1.00;;;0.90;;
9048;SDS011;4559;47.252;9.592;2022-12-29T12:07:11;0.68;;;0.68;;
9048;SDS011;4559;47.252;9.592;2022-12-29T12:09:45;0.50;;;0.50;;
9048;SDS011;4559;47.252;9.592;2022-12-29T12:12:28;1.27;;;0.50;;
9048;SDS011;4559;47.252;9.592;2022-12-29T12:14:55;1.77;;;1.25;;
9048;SDS011;4559;47.252;9.592;2022-12-29T12:20:23;1.10;;;0.80;;
9048;SDS011;4559;47.252;9.592;2022-12-29T12:26:09;1.47;;;0.63;;
9048;SDS011;4559;47.252;9.592;2022-12-29T12:31:18;0.85;;;0.63;;
9048;SDS011;4559;47.252;9.592;2022-12-29T12:33:53;1.10;;;0.88;;
9048;SDS011;4559;47.252;9.592;2022-12-29T12:36:29;0.93;;;0.73;;
9048;SDS011;4559;47.252;9.592;2022-12-29T12:39:11;1.42;;;0.98;;
9048;SDS011;4559;47.252;9.592;2022-12-29T12:41:49;2.13;;;1.50;;
9048;SDS011;4559;47.252;9.592;2022-12-29T12:50:28;2.50;;;1.70;;
9048;SDS011;4559;47.252;9.592;2022-12-29T13:07:04;1.30;;;1.20;;
9048;SDS011;4559;47.252;9.592;2022-12-29T13:12:09;1.13;;;0.90;;
9048;SDS011;4559;47.252;9.592;2022-12-29T13:17:36;1.42;;;1.23;;
9048;SDS011;4559;47.252;9.592;2022-12-29T13:20:20;2.40;;;1.23;;
9048;SDS011;4559;47.252;9.592;2022-12-29T13:25:43;1.98;;;1.40;;
9048;SDS011;4559;47.252;9.592;2022-12-29T13:28:22;2.35;;;1.55;;
9048;SDS011;4559;47.252;9.592;2022-12-29T13:31:06;1.63;;;1.00;;
9048;SDS011;4559;47.252;9.592;2022-12-29T13:33:51;2.05;;;1.20;;
9048;SDS011;4559;47.252;9.592;2022-12-29T13:36:32;2.03;;;1.52;;
9048;SDS011;4559;47.252;9.592;2022-12-29T13:39:06;3.17;;;2.47;;
9048;SDS011;4559;47.252;9.592;2022-12-29T13:41:37;2.47;;;1.40;;
9048;SDS011;4559;47.252;9.592;2022-12-29T13:44:35;2.45;;;1.65;;
9048;SDS011;4559;47.252;9.592;2022-12-29T13:47:39;2.57;;;1.97;;
9048;SDS011;4559;47.252;9.592;2022-12-29T13:50:02;2.38;;;1.95;;
9048;SDS011;4559;47.252;9.592;2022-12-29T13:52:38;1.30;;;1.20;;
9048;SDS011;4559;47.252;9.592;2022-12-29T13:55:35;3.90;;;1.60;;
9048;SDS011;4559;47.252;9.592;2022-12-29T13:58:12;1.25;;;1.13;;
9048;SDS011;4559;47.252;9.592;2022-12-29T14:01:30;3.33;;;1.65;;
9048;SDS011;4559;47.252;9.592;2022-12-29T14:04:03;10.43;;;3.17;;
9048;SDS011;4559;47.252;9.592;2022-12-29T14:06:38;9.17;;;5.07;;
9048;SDS011;4559;47.252;9.592;2022-12-29T14:09:06;13.77;;;5.75;;
9048;SDS011;4559;47.252;9.592;2022-12-29T14:11:55;17.58;;;6.50;;
9048;SDS011;4559;47.252;9.592;2022-12-29T14:14:25;12.77;;;5.53;;
9048;SDS011;4559;47.252;9.592;2022-12-29T14:16:57;12.68;;;5.10;;
9048;SDS011;4559;47.252;9.592;2022-12-29T14:19:39;13.20;;;6.28;;
9048;SDS011;4559;47.252;9.592;2022-12-29T14:22:08;7.22;;;4.03;;
9048;SDS011;4559;47.252;9.592;2022-12-29T14:27:01;9.07;;;5.23;;
9048;SDS011;4559;47.252;9.592;2022-12-29T14:29:49;4.68;;;3.13;;
9048;SDS011;4559;47.252;9.592;2022-12-29T14:34:50;12.13;;;4.93;;
9048;SDS011;4559;47.252;9.592;2022-12-29T14:37:34;8.90;;;3.83;;
9048;SDS011;4559;47.252;9.592;2022-12-29T14:42:42;8.85;;;5.10;;
9048;SDS011;4559;47.252;9.592;2022-12-29T14:47:38;7.18;;;4.07;;
9048;SDS011;4559;47.252;9.592;2022-12-29T14:52:44;5.07;;;3.80;;
9048;SDS011;4559;47.252;9.592;2022-12-29T14:55:37;7.57;;;3.97;;
9048;SDS011;4559;47.252;9.592;2022-12-29T14:58:22;11.48;;;2.88;;
9048;SDS011;4559;47.252;9.592;2022-12-29T15:00:56;8.75;;;3.22;;
9048;SDS011;4559;47.252;9.592;2022-12-29T15:03:23;8.45;;;4.55;;
9048;SDS011;4559;47.252;9.592;2022-12-29T15:05:55;6.40;;;3.50;;
9048;SDS011;4559;47.252;9.592;2022-12-29T15:08:26;4.15;;;2.63;;
9048;SDS011;4559;47.252;9.592;2022-12-29T15:10:57;4.27;;;2.83;;
9048;SDS011;4559;47.252;9.592;2022-12-29T15:13:39;5.87;;;3.00;;
9048;SDS011;4559;47.252;9.592;2022-12-29T15:16:29;8.88;;;4.45;;
9048;SDS011;4559;47.252;9.592;2022-12-29T15:18:56;5.68;;;3.70;;
9048;SDS011;4559;47.252;9.592;2022-12-29T15:21:24;3.83;;;3.15;;
9048;SDS011;4559;47.252;9.592;2022-12-29T15:23:51;3.97;;;2.92;;
9048;SDS011;4559;47.252;9.592;2022-12-29T15:26:18;5.32;;;3.03;;
9048;SDS011;4559;47.252;9.592;2022-12-29T15:28:48;5.15;;;3.08;;
9048;SDS011;4559;47.252;9.592;2022-12-29T15:31:24;6.13;;;3.72;;
9048;SDS011;4559;47.252;9.592;2022-12-29T15:33:52;7.50;;;4.50;;
9048;SDS011;4559;47.252;9.592;2022-12-29T15:36:26;5.57;;;4.32;;
9048;SDS011;4559;47.252;9.592;2022-12-29T15:38:53;6.93;;;3.58;;
9048;SDS011;4559;47.252;9.592;2022-12-29T15:46:32;5.00;;;2.92;;
9048;SDS011;4559;47.252;9.592;2022-12-29T15:48:58;4.60;;;3.00;;
9048;SDS011;4559;47.252;9.592;2022-12-29T15:51:30;6.25;;;3.92;;
9048;SDS011;4559;47.252;9.592;2022-12-29T15:54:01;13.80;;;7.53;;
9048;SDS011;4559;47.252;9.592;2022-12-29T15:56:28;7.72;;;4.32;;
9048;SDS011;4559;47.252;9.592;2022-12-29T15:58:54;5.25;;;3.55;;
9048;SDS011;4559;47.252;9.592;2022-12-29T16:04:00;4.22;;;2.83;;
9048;SDS011;4559;47.252;9.592;2022-12-29T16:06:33;7.97;;;4.75;;
9048;SDS011;4559;47.252;9.592;2022-12-29T16:09:02;6.00;;;4.80;;
9048;SDS011;4559;47.252;9.592;2022-12-29T16:11:39;5.63;;;3.83;;
9048;SDS011;4559;47.252;9.592;2022-12-29T16:14:10;6.75;;;3.80;;
9048;SDS011;4559;47.252;9.592;2022-12-29T16:16:41;9.02;;;4.25;;
9048;SDS011;4559;47.252;9.592;2022-12-29T16:21:49;5.82;;;3.13;;
9048;SDS011;4559;47.252;9.592;2022-12-29T16:24:16;3.83;;;2.83;;
9048;SDS011;4559;47.252;9.592;2022-12-29T16:26:48;4.33;;;2.70;;
9048;SDS011;4559;47.252;9.592;2022-12-29T16:29:15;5.70;;;3.40;;
9048;SDS011;4559;47.252;9.592;2022-12-29T16:31:52;4.68;;;3.25;;
9048;SDS011;4559;47.252;9.592;2022-12-29T16:34:30;5.88;;;3.28;;
9048;SDS011;4559;47.252;9.592;2022-12-29T16:36:59;4.95;;;3.53;;
9048;SDS011;4559;47.252;9.592;2022-12-29T16:39:37;5.25;;;3.60;;
9048;SDS011;4559;47.252;9.592;2022-12-29T16:48:17;4.80;;;3.45;;
9048;SDS011;4559;47.252;9.592;2022-12-29T16:50:45;5.70;;;3.10;;
9048;SDS011;4559;47.252;9.592;2022-12-29T16:53:21;8.30;;;5.18;;
9048;SDS011;4559;47.252;9.592;2022-12-29T16:55:53;6.00;;;3.80;;
9048;SDS011;4559;47.252;9.592;2022-12-29T16:58:21;6.97;;;4.70;;
9048;SDS011;4559;47.252;9.592;2022-12-29T17:00:51;5.97;;;3.65;;
9048;SDS011;4559;47.252;9.592;2022-12-29T17:03:23;9.40;;;4.88;;
9048;SDS011;4559;47.252;9.592;2022-12-29T17:05:56;4.75;;;3.80;;
9048;SDS011;4559;47.252;9.592;2022-12-29T17:08:21;7.63;;;3.85;;
9048;SDS011;4559;47.252;9.592;2022-12-29T17:10:51;7.65;;;4.07;;
9048;SDS011;4559;47.252;9.592;2022-12-29T17:13:37;5.75;;;3.90;;
9048;SDS011;4559;47.252;9.592;2022-12-29T17:16:03;7.90;;;3.67;;
9048;SDS011;4559;47.252;9.592;2022-12-29T17:18:32;7.93;;;4.45;;
9048;SDS011;4559;47.252;9.592;2022-12-29T17:20:58;7.38;;;4.30;;
9048;SDS011;4559;47.252;9.592;2022-12-29T17:23:23;7.15;;;4.80;;
9048;SDS011;4559;47.252;9.592;2022-12-29T17:25:49;6.10;;;4.80;;
9048;SDS011;4559;47.252;9.592;2022-12-29T17:28:19;5.45;;;3.20;;
9048;SDS011;4559;47.252;9.592;2022-12-29T17:30:47;5.22;;;3.22;;
9048;SDS011;4559;47.252;9.592;2022-12-29T17:33:14;4.75;;;3.30;;
9048;SDS011;4559;47.252;9.592;2022-12-29T17:35:41;3.53;;;2.90;;
9048;SDS011;4559;47.252;9.592;2022-12-29T17:40:45;3.92;;;2.67;;
9048;SDS011;4559;47.252;9.592;2022-12-29T17:43:12;5.13;;;3.60;;
9048;SDS011;4559;47.252;9.592;2022-12-29T17:45:39;6.73;;;3.90;;
9048;SDS011;4559;47.252;9.592;2022-12-29T17:48:15;4.53;;;3.25;;